sensor_id;sensor_type;location;lat;lon;timestamp;P1;durP1;ratioP1;P2;durP2;ratioP2
29236;SDS011;16266;50.866;4.398;2024-01-30T00:01:39;242.27;;;231.95;;
29236;SDS011;16266;50.866;4.398;2024-01-30T00:04:05;208.77;;;200.15;;
29236;SDS011;16266;50.866;4.398;2024-01-30T00:06:31;227.73;;;218.43;;
29236;SDS011;16266;50.866;4.398;2024-01-30T00:08:56;222.95;;;213.93;;
29236;SDS011;16266;50.866;4.398;2024-01-30T00:11:22;215.77;;;207.18;;
29236;SDS011;16266;50.866;4.398;2024-01-30T00:13:51;208.55;;;200.13;;
29236;SDS011;16266;50.866;4.398;2024-01-30T00:16:23;200.77;;;192.77;;
29236;SDS011;16266;50.866;4.398;2024-01-30T00:18:53;211.30;;;202.95;;
29236;SDS011;16266;50.866;4.398;2024-01-30T00:21:19;213.57;;;205.18;;
29236;SDS011;16266;50.866;4.398;2024-01-30T00:23:45;219.13;;;210.50;;
29236;SDS011;16266;50.866;4.398;2024-01-30T00:26:11;224.55;;;215.57;;
29236;SDS011;16266;50.866;4.398;2024-01-30T00:28:38;228.27;;;219.18;;
29236;SDS011;16266;50.866;4.398;2024-01-30T00:31:04;233.27;;;224.10;;
29236;SDS011;16266;50.866;4.398;2024-01-30T00:33:29;230.38;;;221.07;;
29236;SDS011;16266;50.866;4.398;2024-01-30T00:35:55;240.23;;;230.77;;
29236;SDS011;16266;50.866;4.398;2024-01-30T00:38:21;244.43;;;234.65;;
29236;SDS011;16266;50.866;4.398;2024-01-30T00:40:47;240.60;;;230.70;;
29236;SDS011;16266;50.866;4.398;2024-01-30T00:43:13;254.90;;;244.73;;
29236;SDS011;16266;50.866;4.398;2024-01-30T00:45:40;257.67;;;247.43;;
29236;SDS011;16266;50.866;4.398;2024-01-30T00:48:05;245.93;;;236.23;;
29236;SDS011;16266;50.866;4.398;2024-01-30T00:50:31;246.30;;;236.65;;
29236;SDS011;16266;50.866;4.398;2024-01-30T00:52:57;234.25;;;224.95;;
29236;SDS011;16266;50.866;4.398;2024-01-30T00:55:22;234.48;;;224.93;;
29236;SDS011;16266;50.866;4.398;2024-01-30T00:57:48;226.35;;;217.38;;
29236;SDS011;16266;50.866;4.398;2024-01-30T01:00:14;230.63;;;221.30;;
29236;SDS011;16266;50.866;4.398;2024-01-30T01:02:43;211.18;;;202.73;;
29236;SDS011;16266;50.866;4.398;2024-01-30T01:05:09;230.05;;;220.93;;
29236;SDS011;16266;50.866;4.398;2024-01-30T01:07:35;231.48;;;221.98;;
29236;SDS011;16266;50.866;4.398;2024-01-30T01:10:01;256.17;;;246.00;;
29236;SDS011;16266;50.866;4.398;2024-01-30T01:12:27;261.65;;;251.15;;
29236;SDS011;16266;50.866;4.398;2024-01-30T01:14:53;260.75;;;250.43;;
29236;SDS011;16266;50.866;4.398;2024-01-30T01:17:19;265.80;;;254.98;;
29236;SDS011;16266;50.866;4.398;2024-01-30T01:19:45;267.35;;;256.83;;
29236;SDS011;16266;50.866;4.398;2024-01-30T01:22:11;253.73;;;243.80;;
29236;SDS011;16266;50.866;4.398;2024-01-30T01:24:36;249.80;;;239.85;;
29236;SDS011;16266;50.866;4.398;2024-01-30T01:27:02;245.45;;;235.73;;
29236;SDS011;16266;50.866;4.398;2024-01-30T01:29:28;254.93;;;244.77;;
29236;SDS011;16266;50.866;4.398;2024-01-30T01:31:57;255.23;;;245.25;;
29236;SDS011;16266;50.866;4.398;2024-01-30T01:34:23;259.30;;;248.93;;
29236;SDS011;16266;50.866;4.398;2024-01-30T01:36:50;254.98;;;244.90;;
29236;SDS011;16266;50.866;4.398;2024-01-30T01:39:16;257.83;;;247.20;;
29236;SDS011;16266;50.866;4.398;2024-01-30T01:41:43;248.00;;;238.15;;
29236;SDS011;16266;50.866;4.398;2024-01-30T01:44:08;254.10;;;244.15;;
29236;SDS011;16266;50.866;4.398;2024-01-30T01:46:35;247.98;;;238.07;;
29236;SDS011;16266;50.866;4.398;2024-01-30T01:49:05;246.43;;;236.77;;
29236;SDS011;16266;50.866;4.398;2024-01-30T01:51:33;235.68;;;226.43;;
29236;SDS011;16266;50.866;4.398;2024-01-30T01:54:02;226.98;;;217.65;;
29236;SDS011;16266;50.866;4.398;2024-01-30T01:56:29;238.60;;;229.20;;
29236;SDS011;16266;50.866;4.398;2024-01-30T01:58:56;234.57;;;224.88;;
29236;SDS011;16266;50.866;4.398;2024-01-30T02:01:25;219.15;;;210.30;;
29236;SDS011;16266;50.866;4.398;2024-01-30T02:03:52;247.50;;;237.82;;
29236;SDS011;16266;50.866;4.398;2024-01-30T02:06:18;237.88;;;228.25;;
29236;SDS011;16266;50.866;4.398;2024-01-30T02:08:44;242.13;;;232.45;;
29236;SDS011;16266;50.866;4.398;2024-01-30T02:11:10;247.45;;;237.68;;
29236;SDS011;16266;50.866;4.398;2024-01-30T02:13:36;233.77;;;224.57;;
29236;SDS011;16266;50.866;4.398;2024-01-30T02:16:02;229.65;;;220.60;;
29236;SDS011;16266;50.866;4.398;2024-01-30T02:18:28;233.60;;;224.25;;
29236;SDS011;16266;50.866;4.398;2024-01-30T02:20:54;262.27;;;252.00;;
29236;SDS011;16266;50.866;4.398;2024-01-30T02:23:23;253.93;;;243.83;;
29236;SDS011;16266;50.866;4.398;2024-01-30T02:25:50;253.73;;;243.75;;
29236;SDS011;16266;50.866;4.398;2024-01-30T02:28:18;248.95;;;238.95;;
29236;SDS011;16266;50.866;4.398;2024-01-30T02:30:44;225.13;;;216.20;;
29236;SDS011;16266;50.866;4.398;2024-01-30T02:33:11;229.23;;;220.25;;
29236;SDS011;16266;50.866;4.398;2024-01-30T02:35:37;230.50;;;221.48;;
29236;SDS011;16266;50.866;4.398;2024-01-30T02:38:03;225.63;;;216.82;;
29236;SDS011;16266;50.866;4.398;2024-01-30T02:40:29;227.45;;;218.38;;
29236;SDS011;16266;50.866;4.398;2024-01-30T02:42:55;225.30;;;216.27;;
29236;SDS011;16266;50.866;4.398;2024-01-30T02:45:23;240.60;;;231.15;;
29236;SDS011;16266;50.866;4.398;2024-01-30T02:47:49;235.85;;;226.65;;
29236;SDS011;16266;50.866;4.398;2024-01-30T02:50:14;220.73;;;211.65;;
29236;SDS011;16266;50.866;4.398;2024-01-30T02:52:41;241.60;;;231.98;;
29236;SDS011;16266;50.866;4.398;2024-01-30T02:55:09;243.25;;;233.73;;
29236;SDS011;16266;50.866;4.398;2024-01-30T02:57:35;246.63;;;236.93;;
29236;SDS011;16266;50.866;4.398;2024-01-30T03:00:01;236.35;;;227.07;;
29236;SDS011;16266;50.866;4.398;2024-01-30T03:02:28;249.93;;;239.82;;
29236;SDS011;16266;50.866;4.398;2024-01-30T03:04:53;241.38;;;231.88;;
29236;SDS011;16266;50.866;4.398;2024-01-30T03:07:20;243.20;;;233.65;;
29236;SDS011;16266;50.866;4.398;2024-01-30T03:09:46;234.30;;;225.15;;
29236;SDS011;16266;50.866;4.398;2024-01-30T03:12:11;210.90;;;202.52;;
29236;SDS011;16266;50.866;4.398;2024-01-30T03:14:37;216.07;;;207.65;;
29236;SDS011;16266;50.866;4.398;2024-01-30T03:17:03;200.77;;;192.82;;
29236;SDS011;16266;50.866;4.398;2024-01-30T03:19:29;191.00;;;183.50;;
29236;SDS011;16266;50.866;4.398;2024-01-30T03:21:54;192.63;;;185.05;;
29236;SDS011;16266;50.866;4.398;2024-01-30T03:24:20;206.45;;;198.43;;
29236;SDS011;16266;50.866;4.398;2024-01-30T03:26:46;231.68;;;222.68;;
29236;SDS011;16266;50.866;4.398;2024-01-30T03:29:11;231.82;;;222.80;;
29236;SDS011;16266;50.866;4.398;2024-01-30T03:31:38;233.05;;;223.85;;
29236;SDS011;16266;50.866;4.398;2024-01-30T03:34:04;247.43;;;237.50;;
29236;SDS011;16266;50.866;4.398;2024-01-30T03:36:29;233.80;;;224.52;;
29236;SDS011;16266;50.866;4.398;2024-01-30T03:38:58;238.73;;;229.38;;
29236;SDS011;16266;50.866;4.398;2024-01-30T03:41:23;242.80;;;233.27;;
29236;SDS011;16266;50.866;4.398;2024-01-30T03:43:50;245.52;;;235.90;;
29236;SDS011;16266;50.866;4.398;2024-01-30T03:46:15;242.50;;;233.05;;
29236;SDS011;16266;50.866;4.398;2024-01-30T03:48:41;228.63;;;219.30;;
29236;SDS011;16266;50.866;4.398;2024-01-30T03:51:07;232.85;;;223.80;;
29236;SDS011;16266;50.866;4.398;2024-01-30T03:53:33;224.55;;;215.75;;
29236;SDS011;16266;50.866;4.398;2024-01-30T03:55:58;222.38;;;213.27;;
29236;SDS011;16266;50.866;4.398;2024-01-30T03:58:24;210.52;;;202.35;;
29236;SDS011;16266;50.866;4.398;2024-01-30T04:00:50;202.27;;;194.38;;
29236;SDS011;16266;50.866;4.398;2024-01-30T04:03:15;205.05;;;196.65;;
29236;SDS011;16266;50.866;4.398;2024-01-30T04:05:41;197.80;;;189.88;;
29236;SDS011;16266;50.866;4.398;2024-01-30T04:08:07;215.15;;;206.63;;
29236;SDS011;16266;50.866;4.398;2024-01-30T04:10:33;225.38;;;216.23;;
29236;SDS011;16266;50.866;4.398;2024-01-30T04:12:59;236.30;;;227.02;;
29236;SDS011;16266;50.866;4.398;2024-01-30T04:15:25;241.05;;;231.40;;
29236;SDS011;16266;50.866;4.398;2024-01-30T04:17:51;233.32;;;223.75;;
29236;SDS011;16266;50.866;4.398;2024-01-30T04:20:17;236.18;;;226.88;;
29236;SDS011;16266;50.866;4.398;2024-01-30T04:22:43;237.88;;;228.38;;
29236;SDS011;16266;50.866;4.398;2024-01-30T04:25:10;248.70;;;238.90;;
29236;SDS011;16266;50.866;4.398;2024-01-30T04:27:36;252.48;;;242.48;;
29236;SDS011;16266;50.866;4.398;2024-01-30T04:30:02;240.73;;;231.18;;
29236;SDS011;16266;50.866;4.398;2024-01-30T04:32:28;234.25;;;225.02;;
29236;SDS011;16266;50.866;4.398;2024-01-30T04:34:54;238.10;;;228.63;;
29236;SDS011;16266;50.866;4.398;2024-01-30T04:37:20;244.93;;;235.25;;
29236;SDS011;16266;50.866;4.398;2024-01-30T04:39:46;222.80;;;213.93;;
29236;SDS011;16266;50.866;4.398;2024-01-30T04:42:12;231.40;;;222.27;;
29236;SDS011;16266;50.866;4.398;2024-01-30T04:44:37;226.70;;;217.63;;
29236;SDS011;16266;50.866;4.398;2024-01-30T04:47:03;228.18;;;219.23;;
29236;SDS011;16266;50.866;4.398;2024-01-30T04:49:31;226.40;;;217.57;;
29236;SDS011;16266;50.866;4.398;2024-01-30T04:51:57;230.43;;;221.40;;
29236;SDS011;16266;50.866;4.398;2024-01-30T04:54:23;246.82;;;237.02;;
29236;SDS011;16266;50.866;4.398;2024-01-30T04:56:49;227.65;;;218.63;;
29236;SDS011;16266;50.866;4.398;2024-01-30T04:59:15;228.20;;;219.23;;
29236;SDS011;16266;50.866;4.398;2024-01-30T05:01:40;234.95;;;225.65;;
29236;SDS011;16266;50.866;4.398;2024-01-30T05:04:09;235.35;;;225.48;;
29236;SDS011;16266;50.866;4.398;2024-01-30T05:06:36;213.27;;;204.85;;
29236;SDS011;16266;50.866;4.398;2024-01-30T05:09:02;200.55;;;192.63;;
29236;SDS011;16266;50.866;4.398;2024-01-30T05:11:29;209.05;;;200.70;;
29236;SDS011;16266;50.866;4.398;2024-01-30T05:13:55;219.68;;;211.00;;
29236;SDS011;16266;50.866;4.398;2024-01-30T05:16:21;202.85;;;194.45;;
29236;SDS011;16266;50.866;4.398;2024-01-30T05:18:46;186.20;;;178.50;;
29236;SDS011;16266;50.866;4.398;2024-01-30T05:21:12;196.35;;;188.57;;
29236;SDS011;16266;50.866;4.398;2024-01-30T05:23:38;193.43;;;185.68;;
29236;SDS011;16266;50.866;4.398;2024-01-30T05:26:04;189.15;;;181.52;;
29236;SDS011;16266;50.866;4.398;2024-01-30T05:28:29;210.00;;;201.73;;
29236;SDS011;16266;50.866;4.398;2024-01-30T05:30:55;198.02;;;189.82;;
29236;SDS011;16266;50.866;4.398;2024-01-30T05:33:21;207.95;;;199.88;;
29236;SDS011;16266;50.866;4.398;2024-01-30T05:35:47;191.15;;;183.25;;
29236;SDS011;16266;50.866;4.398;2024-01-30T05:38:14;204.80;;;196.57;;
29236;SDS011;16266;50.866;4.398;2024-01-30T05:40:41;216.70;;;207.98;;
29236;SDS011;16266;50.866;4.398;2024-01-30T05:43:06;207.60;;;198.63;;
29236;SDS011;16266;50.866;4.398;2024-01-30T05:45:33;207.13;;;198.85;;
29236;SDS011;16266;50.866;4.398;2024-01-30T05:48:02;219.63;;;210.90;;
29236;SDS011;16266;50.866;4.398;2024-01-30T05:50:28;229.15;;;220.07;;
29236;SDS011;16266;50.866;4.398;2024-01-30T05:52:54;222.48;;;213.38;;
29236;SDS011;16266;50.866;4.398;2024-01-30T05:55:19;230.48;;;221.25;;
29236;SDS011;16266;50.866;4.398;2024-01-30T05:57:45;235.88;;;226.57;;
29236;SDS011;16266;50.866;4.398;2024-01-30T06:00:11;238.13;;;228.50;;
29236;SDS011;16266;50.866;4.398;2024-01-30T06:02:37;259.73;;;249.38;;
29236;SDS011;16266;50.866;4.398;2024-01-30T06:05:03;249.18;;;239.13;;
29236;SDS011;16266;50.866;4.398;2024-01-30T06:07:28;250.40;;;240.45;;
29236;SDS011;16266;50.866;4.398;2024-01-30T06:09:54;246.35;;;236.68;;
29236;SDS011;16266;50.866;4.398;2024-01-30T06:12:20;241.80;;;232.13;;
29236;SDS011;16266;50.866;4.398;2024-01-30T06:14:45;248.57;;;238.60;;
29236;SDS011;16266;50.866;4.398;2024-01-30T06:17:11;257.45;;;247.25;;
29236;SDS011;16266;50.866;4.398;2024-01-30T06:19:37;248.45;;;238.32;;
29236;SDS011;16266;50.866;4.398;2024-01-30T06:22:06;255.23;;;245.10;;
29236;SDS011;16266;50.866;4.398;2024-01-30T06:24:32;248.20;;;238.07;;
29236;SDS011;16266;50.866;4.398;2024-01-30T06:26:59;230.27;;;221.23;;
29236;SDS011;16266;50.866;4.398;2024-01-30T06:29:25;209.02;;;200.52;;
29236;SDS011;16266;50.866;4.398;2024-01-30T06:31:52;171.38;;;164.60;;
29236;SDS011;16266;50.866;4.398;2024-01-30T06:34:17;164.48;;;157.52;;
29236;SDS011;16266;50.866;4.398;2024-01-30T06:36:43;123.75;;;118.47;;
29236;SDS011;16266;50.866;4.398;2024-01-30T06:39:09;102.00;;;97.85;;
29236;SDS011;16266;50.866;4.398;2024-01-30T06:41:34;83.43;;;80.20;;
29236;SDS011;16266;50.866;4.398;2024-01-30T06:44:02;82.30;;;78.97;;
29236;SDS011;16266;50.866;4.398;2024-01-30T06:46:29;94.80;;;91.00;;
29236;SDS011;16266;50.866;4.398;2024-01-30T06:48:54;81.53;;;78.22;;
29236;SDS011;16266;50.866;4.398;2024-01-30T06:51:20;76.30;;;73.32;;
29236;SDS011;16266;50.866;4.398;2024-01-30T06:53:46;64.00;;;61.38;;
29236;SDS011;16266;50.866;4.398;2024-01-30T06:56:11;64.85;;;62.05;;
29236;SDS011;16266;50.866;4.398;2024-01-30T06:58:37;62.83;;;60.33;;
29236;SDS011;16266;50.866;4.398;2024-01-30T07:01:02;57.70;;;55.33;;
29236;SDS011;16266;50.866;4.398;2024-01-30T07:03:28;59.60;;;57.35;;
29236;SDS011;16266;50.866;4.398;2024-01-30T07:05:54;58.05;;;55.75;;
29236;SDS011;16266;50.866;4.398;2024-01-30T07:08:20;60.50;;;57.97;;
29236;SDS011;16266;50.866;4.398;2024-01-30T07:10:46;57.83;;;55.53;;
29236;SDS011;16266;50.866;4.398;2024-01-30T07:13:12;55.28;;;53.08;;
29236;SDS011;16266;50.866;4.398;2024-01-30T07:15:38;55.53;;;53.15;;
29236;SDS011;16266;50.866;4.398;2024-01-30T07:18:04;55.08;;;52.78;;
29236;SDS011;16266;50.866;4.398;2024-01-30T07:20:30;61.60;;;59.22;;
29236;SDS011;16266;50.866;4.398;2024-01-30T07:22:59;76.93;;;73.38;;
29236;SDS011;16266;50.866;4.398;2024-01-30T07:25:25;83.75;;;80.15;;
29236;SDS011;16266;50.866;4.398;2024-01-30T07:27:51;109.00;;;104.65;;
29236;SDS011;16266;50.866;4.398;2024-01-30T07:30:17;136.07;;;130.70;;
29236;SDS011;16266;50.866;4.398;2024-01-30T07:32:43;203.70;;;195.32;;
29236;SDS011;16266;50.866;4.398;2024-01-30T07:35:09;176.50;;;169.63;;
29236;SDS011;16266;50.866;4.398;2024-01-30T07:37:36;201.00;;;192.95;;
29236;SDS011;16266;50.866;4.398;2024-01-30T07:40:02;213.93;;;205.15;;
29236;SDS011;16266;50.866;4.398;2024-01-30T07:42:28;218.05;;;209.25;;
29236;SDS011;16266;50.866;4.398;2024-01-30T07:44:54;200.00;;;191.90;;
29236;SDS011;16266;50.866;4.398;2024-01-30T07:47:20;217.52;;;208.38;;
29236;SDS011;16266;50.866;4.398;2024-01-30T07:49:46;211.23;;;201.82;;
29236;SDS011;16266;50.866;4.398;2024-01-30T07:52:12;209.45;;;200.93;;
29236;SDS011;16266;50.866;4.398;2024-01-30T07:54:47;221.25;;;212.43;;
29236;SDS011;16266;50.866;4.398;2024-01-30T07:57:13;228.25;;;219.00;;
29236;SDS011;16266;50.866;4.398;2024-01-30T07:59:39;220.32;;;211.50;;
29236;SDS011;16266;50.866;4.398;2024-01-30T08:02:06;225.35;;;215.95;;
29236;SDS011;16266;50.866;4.398;2024-01-30T08:04:33;228.43;;;219.10;;
29236;SDS011;16266;50.866;4.398;2024-01-30T08:06:58;226.02;;;216.27;;
29236;SDS011;16266;50.866;4.398;2024-01-30T08:09:24;232.85;;;223.38;;
29236;SDS011;16266;50.866;4.398;2024-01-30T08:11:50;222.23;;;213.38;;
29236;SDS011;16266;50.866;4.398;2024-01-30T08:14:15;228.40;;;219.20;;
29236;SDS011;16266;50.866;4.398;2024-01-30T08:16:41;234.05;;;224.48;;
29236;SDS011;16266;50.866;4.398;2024-01-30T08:19:07;227.43;;;217.95;;
29236;SDS011;16266;50.866;4.398;2024-01-30T08:21:33;231.02;;;221.63;;
29236;SDS011;16266;50.866;4.398;2024-01-30T08:24:02;228.63;;;218.55;;
29236;SDS011;16266;50.866;4.398;2024-01-30T08:26:29;218.52;;;209.65;;
29236;SDS011;16266;50.866;4.398;2024-01-30T08:28:55;223.02;;;214.13;;
29236;SDS011;16266;50.866;4.398;2024-01-30T08:31:21;217.10;;;208.52;;
29236;SDS011;16266;50.866;4.398;2024-01-30T08:33:46;232.07;;;222.82;;
29236;SDS011;16266;50.866;4.398;2024-01-30T08:36:12;229.10;;;219.80;;
29236;SDS011;16266;50.866;4.398;2024-01-30T08:38:38;225.27;;;215.85;;
29236;SDS011;16266;50.866;4.398;2024-01-30T08:41:04;217.45;;;208.35;;
29236;SDS011;16266;50.866;4.398;2024-01-30T08:43:30;227.15;;;217.35;;
29236;SDS011;16266;50.866;4.398;2024-01-30T08:45:58;211.13;;;202.68;;
29236;SDS011;16266;50.866;4.398;2024-01-30T08:48:25;212.00;;;203.52;;
29236;SDS011;16266;50.866;4.398;2024-01-30T08:50:50;213.77;;;205.30;;
29236;SDS011;16266;50.866;4.398;2024-01-30T08:53:16;222.75;;;213.63;;
29236;SDS011;16266;50.866;4.398;2024-01-30T08:55:42;217.38;;;208.77;;
29236;SDS011;16266;50.866;4.398;2024-01-30T08:58:08;208.88;;;200.50;;
29236;SDS011;16266;50.866;4.398;2024-01-30T09:00:33;193.60;;;185.77;;
29236;SDS011;16266;50.866;4.398;2024-01-30T09:03:00;199.05;;;191.23;;
29236;SDS011;16266;50.866;4.398;2024-01-30T09:05:26;198.35;;;190.20;;
29236;SDS011;16266;50.866;4.398;2024-01-30T09:07:51;216.48;;;206.60;;
29236;SDS011;16266;50.866;4.398;2024-01-30T09:10:17;200.25;;;192.35;;
29236;SDS011;16266;50.866;4.398;2024-01-30T09:12:43;205.55;;;196.98;;
29236;SDS011;16266;50.866;4.398;2024-01-30T09:15:09;225.48;;;216.55;;
29236;SDS011;16266;50.866;4.398;2024-01-30T09:17:34;195.93;;;187.98;;
29236;SDS011;16266;50.866;4.398;2024-01-30T09:20:00;202.27;;;194.32;;
29236;SDS011;16266;50.866;4.398;2024-01-30T09:22:26;214.70;;;205.82;;
29236;SDS011;16266;50.866;4.398;2024-01-30T09:24:51;208.23;;;199.65;;
29236;SDS011;16266;50.866;4.398;2024-01-30T09:27:17;214.90;;;206.30;;
29236;SDS011;16266;50.866;4.398;2024-01-30T09:29:43;206.60;;;198.30;;
29236;SDS011;16266;50.866;4.398;2024-01-30T09:32:08;208.27;;;199.38;;
29236;SDS011;16266;50.866;4.398;2024-01-30T09:34:34;204.93;;;196.57;;
29236;SDS011;16266;50.866;4.398;2024-01-30T09:37:00;207.30;;;199.13;;
29236;SDS011;16266;50.866;4.398;2024-01-30T09:39:26;208.75;;;200.38;;
29236;SDS011;16266;50.866;4.398;2024-01-30T09:42:02;206.95;;;198.10;;
29236;SDS011;16266;50.866;4.398;2024-01-30T09:44:40;222.13;;;212.93;;
29236;SDS011;16266;50.866;4.398;2024-01-30T09:47:08;180.60;;;173.32;;
29236;SDS011;16266;50.866;4.398;2024-01-30T09:49:35;144.27;;;138.38;;
29236;SDS011;16266;50.866;4.398;2024-01-30T09:52:02;120.53;;;115.60;;
29236;SDS011;16266;50.866;4.398;2024-01-30T09:54:30;91.88;;;88.13;;
29236;SDS011;16266;50.866;4.398;2024-01-30T09:56:56;75.25;;;71.07;;
29236;SDS011;16266;50.866;4.398;2024-01-30T09:59:22;71.65;;;68.43;;
29236;SDS011;16266;50.866;4.398;2024-01-30T10:01:49;63.25;;;60.55;;
29236;SDS011;16266;50.866;4.398;2024-01-30T10:04:16;64.25;;;61.72;;
29236;SDS011;16266;50.866;4.398;2024-01-30T10:06:42;67.90;;;65.18;;
29236;SDS011;16266;50.866;4.398;2024-01-30T10:09:08;81.82;;;78.43;;
29236;SDS011;16266;50.866;4.398;2024-01-30T10:11:34;106.10;;;102.00;;
29236;SDS011;16266;50.866;4.398;2024-01-30T10:14:03;144.52;;;138.40;;
29236;SDS011;16266;50.866;4.398;2024-01-30T10:16:28;158.65;;;152.30;;
29236;SDS011;16266;50.866;4.398;2024-01-30T10:18:54;174.15;;;166.98;;
29236;SDS011;16266;50.866;4.398;2024-01-30T10:21:20;181.38;;;173.70;;
29236;SDS011;16266;50.866;4.398;2024-01-30T10:23:46;195.77;;;188.05;;
29236;SDS011;16266;50.866;4.398;2024-01-30T10:26:12;185.70;;;178.32;;
29236;SDS011;16266;50.866;4.398;2024-01-30T10:28:38;200.30;;;191.82;;
29236;SDS011;16266;50.866;4.398;2024-01-30T10:31:03;194.57;;;186.73;;
29236;SDS011;16266;50.866;4.398;2024-01-30T10:33:29;186.07;;;178.30;;
29236;SDS011;16266;50.866;4.398;2024-01-30T10:36:00;134.85;;;129.57;;
29236;SDS011;16266;50.866;4.398;2024-01-30T10:38:30;82.50;;;79.18;;
29236;SDS011;16266;50.866;4.398;2024-01-30T10:40:57;65.43;;;62.47;;
29236;SDS011;16266;50.866;4.398;2024-01-30T10:43:31;66.78;;;64.13;;
29236;SDS011;16266;50.866;4.398;2024-01-30T10:46:18;78.65;;;75.38;;
29236;SDS011;16266;50.866;4.398;2024-01-30T10:48:46;79.85;;;76.25;;
29236;SDS011;16266;50.866;4.398;2024-01-30T10:51:22;78.15;;;74.90;;
29236;SDS011;16266;50.866;4.398;2024-01-30T10:53:48;65.90;;;63.30;;
29236;SDS011;16266;50.866;4.398;2024-01-30T10:56:16;60.53;;;57.88;;
29236;SDS011;16266;50.866;4.398;2024-01-30T10:58:42;62.45;;;59.78;;
29236;SDS011;16266;50.866;4.398;2024-01-30T11:01:07;77.20;;;74.15;;
29236;SDS011;16266;50.866;4.398;2024-01-30T11:03:35;69.13;;;66.03;;
29236;SDS011;16266;50.866;4.398;2024-01-30T11:06:01;57.40;;;55.13;;
29236;SDS011;16266;50.866;4.398;2024-01-30T11:08:27;61.08;;;58.20;;
29236;SDS011;16266;50.866;4.398;2024-01-30T11:10:57;63.58;;;60.75;;
29236;SDS011;16266;50.866;4.398;2024-01-30T11:13:27;89.65;;;84.95;;
29236;SDS011;16266;50.866;4.398;2024-01-30T11:15:54;130.65;;;125.35;;
29236;SDS011;16266;50.866;4.398;2024-01-30T11:18:26;167.05;;;160.30;;
29236;SDS011;16266;50.866;4.398;2024-01-30T11:20:57;215.32;;;206.93;;
29236;SDS011;16266;50.866;4.398;2024-01-30T11:23:26;213.63;;;205.13;;
29236;SDS011;16266;50.866;4.398;2024-01-30T11:25:52;155.52;;;149.23;;
29236;SDS011;16266;50.866;4.398;2024-01-30T11:28:18;121.10;;;116.25;;
29236;SDS011;16266;50.866;4.398;2024-01-30T11:30:46;79.10;;;75.80;;
29236;SDS011;16266;50.866;4.398;2024-01-30T11:33:13;56.20;;;53.92;;
29236;SDS011;16266;50.866;4.398;2024-01-30T11:35:40;53.85;;;51.58;;
29236;SDS011;16266;50.866;4.398;2024-01-30T11:38:07;51.47;;;49.30;;
29236;SDS011;16266;50.866;4.398;2024-01-30T11:40:36;55.40;;;53.00;;
29236;SDS011;16266;50.866;4.398;2024-01-30T11:43:03;70.13;;;67.50;;
29236;SDS011;16266;50.866;4.398;2024-01-30T11:45:30;83.85;;;80.68;;
29236;SDS011;16266;50.866;4.398;2024-01-30T11:47:57;90.50;;;86.82;;
29236;SDS011;16266;50.866;4.398;2024-01-30T11:50:25;87.47;;;84.05;;
29236;SDS011;16266;50.866;4.398;2024-01-30T11:52:51;48.53;;;46.53;;
29236;SDS011;16266;50.866;4.398;2024-01-30T11:55:17;42.60;;;40.95;;
29236;SDS011;16266;50.866;4.398;2024-01-30T11:57:43;53.90;;;51.63;;
29236;SDS011;16266;50.866;4.398;2024-01-30T12:00:16;53.33;;;51.15;;
29236;SDS011;16266;50.866;4.398;2024-01-30T12:02:49;68.57;;;65.75;;
29236;SDS011;16266;50.866;4.398;2024-01-30T12:05:24;63.47;;;60.33;;
29236;SDS011;16266;50.866;4.398;2024-01-30T12:07:50;40.38;;;38.90;;
29236;SDS011;16266;50.866;4.398;2024-01-30T12:10:16;35.38;;;34.08;;
29236;SDS011;16266;50.866;4.398;2024-01-30T12:12:47;55.17;;;53.03;;
29236;SDS011;16266;50.866;4.398;2024-01-30T12:15:14;27.35;;;26.35;;
29236;SDS011;16266;50.866;4.398;2024-01-30T12:17:40;93.32;;;89.65;;
29236;SDS011;16266;50.866;4.398;2024-01-30T12:22:35;101.38;;;97.45;;
29236;SDS011;16266;50.866;4.398;2024-01-30T12:25:04;93.53;;;89.97;;
29236;SDS011;16266;50.866;4.398;2024-01-30T12:27:30;23.15;;;22.25;;
29236;SDS011;16266;50.866;4.398;2024-01-30T12:29:57;19.52;;;18.65;;
29236;SDS011;16266;50.866;4.398;2024-01-30T12:32:23;17.85;;;17.25;;
29236;SDS011;16266;50.866;4.398;2024-01-30T12:34:49;18.45;;;17.73;;
29236;SDS011;16266;50.866;4.398;2024-01-30T12:37:14;21.60;;;20.80;;
29236;SDS011;16266;50.866;4.398;2024-01-30T12:39:45;19.85;;;19.15;;
29236;SDS011;16266;50.866;4.398;2024-01-30T12:42:11;22.38;;;21.50;;
29236;SDS011;16266;50.866;4.398;2024-01-30T12:44:38;24.63;;;23.63;;
29236;SDS011;16266;50.866;4.398;2024-01-30T12:47:03;21.25;;;20.27;;
29236;SDS011;16266;50.866;4.398;2024-01-30T12:49:29;21.52;;;20.38;;
29236;SDS011;16266;50.866;4.398;2024-01-30T12:51:55;19.08;;;18.42;;
29236;SDS011;16266;50.866;4.398;2024-01-30T12:54:22;19.13;;;18.35;;
29236;SDS011;16266;50.866;4.398;2024-01-30T12:56:48;20.20;;;19.42;;
29236;SDS011;16266;50.866;4.398;2024-01-30T12:59:13;21.48;;;20.67;;
29236;SDS011;16266;50.866;4.398;2024-01-30T13:01:39;21.10;;;20.25;;
29236;SDS011;16266;50.866;4.398;2024-01-30T13:04:05;28.50;;;27.00;;
29236;SDS011;16266;50.866;4.398;2024-01-30T13:06:30;28.85;;;27.75;;
29236;SDS011;16266;50.866;4.398;2024-01-30T13:08:56;34.08;;;32.88;;
29236;SDS011;16266;50.866;4.398;2024-01-30T13:11:22;35.17;;;33.90;;
29236;SDS011;16266;50.866;4.398;2024-01-30T13:13:47;40.47;;;38.95;;
29236;SDS011;16266;50.866;4.398;2024-01-30T13:16:13;38.80;;;37.40;;
29236;SDS011;16266;50.866;4.398;2024-01-30T13:18:39;36.35;;;34.38;;
29236;SDS011;16266;50.866;4.398;2024-01-30T13:21:04;32.65;;;31.45;;
29236;SDS011;16266;50.866;4.398;2024-01-30T13:23:30;27.95;;;26.67;;
29236;SDS011;16266;50.866;4.398;2024-01-30T13:25:56;24.30;;;23.27;;
29236;SDS011;16266;50.866;4.398;2024-01-30T13:28:23;24.63;;;23.38;;
29236;SDS011;16266;50.866;4.398;2024-01-30T13:30:50;21.15;;;20.38;;
29236;SDS011;16266;50.866;4.398;2024-01-30T13:33:16;22.13;;;20.95;;
29236;SDS011;16266;50.866;4.398;2024-01-30T13:35:42;22.38;;;21.45;;
29236;SDS011;16266;50.866;4.398;2024-01-30T13:38:08;23.17;;;22.30;;
29236;SDS011;16266;50.866;4.398;2024-01-30T13:40:35;24.88;;;23.88;;
29236;SDS011;16266;50.866;4.398;2024-01-30T13:43:01;24.10;;;23.20;;
29236;SDS011;16266;50.866;4.398;2024-01-30T13:45:27;21.80;;;20.70;;
29236;SDS011;16266;50.866;4.398;2024-01-30T13:47:52;21.95;;;21.15;;
29236;SDS011;16266;50.866;4.398;2024-01-30T13:50:18;24.67;;;23.75;;
29236;SDS011;16266;50.866;4.398;2024-01-30T13:52:44;24.40;;;23.30;;
29236;SDS011;16266;50.866;4.398;2024-01-30T13:55:09;23.27;;;22.45;;
29236;SDS011;16266;50.866;4.398;2024-01-30T13:57:36;23.20;;;22.02;;
29236;SDS011;16266;50.866;4.398;2024-01-30T14:00:05;22.25;;;21.45;;
29236;SDS011;16266;50.866;4.398;2024-01-30T14:02:32;21.92;;;21.10;;